EWG5TM LKPR-EDDL
Flight info
| Callsign | EWG5TM |
|---|---|
| Flight time | 0h 52m |
| Altitude | 34000 |
| Route | BALTU DCT DONAD DCT RAPET T843 VELIS DCT AMETU T852 TINSA T854 DOMUX DOMUX1A |
| Aircraft | A320/M-SDE3FGHIRWY/LB1 |
Departure
| Time | 2026-05-01 14:37 |
|---|---|
| Airport | Václav Havel Airport Prague (LKPR) |
Arrival
| Time | 2026-05-01 15:29 |
|---|---|
| Airport | Düsseldorf Airport (EDDL) |
| Time | Latitude | Longitude | Altitude | Speed | Heading |
|---|---|---|---|---|---|
| 2026-05-01 14:36 | 50.15859 | 14.41578 | 6130 ft | 265 kts | 64° |
| 2026-05-01 14:37 | 50.16666 | 14.44155 | 7161 ft | 265 kts | 57° |
| 2026-05-01 14:37 | 50.17932 | 14.46230 | 8083 ft | 268 kts | 34° |
| 2026-05-01 14:37 | 50.19669 | 14.47286 | 8997 ft | 274 kts | 10° |
| 2026-05-01 14:37 | 50.21600 | 14.47026 | 9908 ft | 285 kts | 344° |
| 2026-05-01 14:38 | 50.23301 | 14.45382 | 10711 ft | 298 kts | 317° |
| 2026-05-01 14:38 | 50.24358 | 14.42545 | 11463 ft | 313 kts | 288° |
| 2026-05-01 14:38 | 50.24516 | 14.39015 | 11746 ft | 341 kts | 266° |
| 2026-05-01 14:38 | 50.24199 | 14.35249 | 12245 ft | 355 kts | 261° |
| 2026-05-01 14:39 | 50.23738 | 14.31422 | 12956 ft | 362 kts | 259° |
| 2026-05-01 14:39 | 50.23228 | 14.27596 | 13684 ft | 367 kts | 259° |
| 2026-05-01 14:39 | 50.22705 | 14.23656 | 14385 ft | 373 kts | 259° |
| 2026-05-01 14:39 | 50.22202 | 14.19659 | 15053 ft | 377 kts | 260° |
| 2026-05-01 14:40 | 50.21722 | 14.15629 | 15747 ft | 380 kts | 261° |
| 2026-05-01 14:40 | 50.21254 | 14.11545 | 16439 ft | 383 kts | 261° |
| 2026-05-01 14:40 | 50.20793 | 14.07431 | 17104 ft | 387 kts | 262° |
| 2026-05-01 14:40 | 50.20328 | 14.03280 | 17767 ft | 390 kts | 262° |
| 2026-05-01 14:41 | 50.19855 | 13.99086 | 18443 ft | 394 kts | 262° |
| 2026-05-01 14:41 | 50.19373 | 13.94857 | 19047 ft | 397 kts | 262° |
| 2026-05-01 14:41 | 50.18884 | 13.90590 | 19632 ft | 400 kts | 262° |
| 2026-05-01 14:41 | 50.18392 | 13.86302 | 20215 ft | 403 kts | 261° |
| 2026-05-01 14:42 | 50.17894 | 13.81995 | 20839 ft | 404 kts | 261° |
| 2026-05-01 14:42 | 50.17394 | 13.77675 | 21431 ft | 407 kts | 261° |
| 2026-05-01 14:42 | 50.16887 | 13.73318 | 21983 ft | 409 kts | 261° |
| 2026-05-01 14:42 | 50.16375 | 13.68925 | 22536 ft | 412 kts | 262° |
| 2026-05-01 14:43 | 50.15860 | 13.64519 | 23079 ft | 415 kts | 262° |
| 2026-05-01 14:43 | 50.15339 | 13.60078 | 23615 ft | 418 kts | 262° |
| 2026-05-01 14:43 | 50.14812 | 13.55606 | 24102 ft | 421 kts | 262° |
| 2026-05-01 14:43 | 50.14278 | 13.51101 | 24542 ft | 423 kts | 262° |
| 2026-05-01 14:44 | 50.13739 | 13.46582 | 24980 ft | 425 kts | 262° |
| 2026-05-01 14:44 | 50.12651 | 13.37538 | 25849 ft | 429 kts | 262° |
| 2026-05-01 14:44 | 50.12098 | 13.32950 | 26276 ft | 431 kts | 262° |
| 2026-05-01 14:45 | 50.11544 | 13.28339 | 26701 ft | 434 kts | 262° |
| 2026-05-01 14:45 | 50.10417 | 13.19053 | 27517 ft | 438 kts | 262° |
| 2026-05-01 14:45 | 50.09843 | 13.14364 | 27923 ft | 441 kts | 262° |
| 2026-05-01 14:46 | 50.09267 | 13.09669 | 28319 ft | 443 kts | 262° |
| 2026-05-01 14:46 | 50.08580 | 13.00156 | 29094 ft | 442 kts | 275° |
| 2026-05-01 14:46 | 50.08909 | 12.95405 | 29478 ft | 440 kts | 284° |
| 2026-05-01 14:47 | 50.09642 | 12.90778 | 29857 ft | 441 kts | 288° |
| 2026-05-01 14:47 | 50.10417 | 12.86211 | 30208 ft | 442 kts | 288° |
| 2026-05-01 14:47 | 50.11200 | 12.81557 | 30571 ft | 444 kts | 287° |
| 2026-05-01 14:48 | 50.12763 | 12.72191 | 31185 ft | 448 kts | 287° |
| 2026-05-01 14:48 | 50.13541 | 12.67469 | 31485 ft | 450 kts | 287° |
| 2026-05-01 14:48 | 50.15104 | 12.57980 | 32061 ft | 453 kts | 287° |
| 2026-05-01 14:49 | 50.16665 | 12.48491 | 32874 ft | 450 kts | 287° |
| 2026-05-01 14:49 | 50.18206 | 12.39055 | 33694 ft | 447 kts | 286° |
| 2026-05-01 14:50 | 50.19229 | 12.32772 | 34235 ft | 446 kts | 286° |
| 2026-05-01 14:50 | 50.21184 | 12.20449 | 34382 ft | 431 kts | 285° |
| 2026-05-01 14:51 | 50.23301 | 12.06861 | 34383 ft | 428 kts | 285° |
| 2026-05-01 14:52 | 50.25399 | 11.93372 | 34382 ft | 427 kts | 285° |
| 2026-05-01 14:53 | 50.27509 | 11.79837 | 34379 ft | 427 kts | 285° |
| 2026-05-01 14:53 | 50.28903 | 11.70821 | 34379 ft | 427 kts | 285° |
| 2026-05-01 14:54 | 50.30282 | 11.61778 | 34376 ft | 427 kts | 285° |
| 2026-05-01 14:54 | 50.31647 | 11.52745 | 34368 ft | 426 kts | 284° |
| 2026-05-01 14:55 | 50.32983 | 11.43706 | 34370 ft | 426 kts | 284° |
| 2026-05-01 14:55 | 50.34306 | 11.34718 | 34369 ft | 425 kts | 284° |
| 2026-05-01 14:56 | 50.35634 | 11.25683 | 34363 ft | 425 kts | 284° |
| 2026-05-01 14:56 | 50.36951 | 11.16657 | 34362 ft | 425 kts | 284° |
| 2026-05-01 14:57 | 50.38274 | 11.07631 | 34351 ft | 424 kts | 284° |
| 2026-05-01 14:57 | 50.40243 | 10.94119 | 34355 ft | 424 kts | 284° |
| 2026-05-01 14:58 | 50.41534 | 10.85107 | 34353 ft | 423 kts | 286° |
| 2026-05-01 14:58 | 50.43451 | 10.76415 | 34353 ft | 422 kts | 291° |
| 2026-05-01 14:59 | 50.45448 | 10.67762 | 34345 ft | 422 kts | 291° |
| 2026-05-01 14:59 | 50.47447 | 10.59117 | 34345 ft | 422 kts | 290° |
| 2026-05-01 15:00 | 50.50413 | 10.46117 | 34348 ft | 422 kts | 290° |
| 2026-05-01 15:01 | 50.52376 | 10.37430 | 34345 ft | 422 kts | 291° |
| 2026-05-01 15:01 | 50.54339 | 10.28755 | 34344 ft | 421 kts | 290° |
| 2026-05-01 15:02 | 50.56305 | 10.20073 | 34347 ft | 421 kts | 290° |
| 2026-05-01 15:02 | 50.58237 | 10.11464 | 34359 ft | 420 kts | 290° |
| 2026-05-01 15:03 | 50.60176 | 10.02798 | 34354 ft | 420 kts | 290° |
| 2026-05-01 15:03 | 50.61139 | 9.98474 | 34187 ft | 417 kts | 290° |
| 2026-05-01 15:03 | 50.62089 | 9.94199 | 33919 ft | 412 kts | 290° |
| 2026-05-01 15:03 | 50.63034 | 9.89942 | 33634 ft | 411 kts | 290° |
| 2026-05-01 15:04 | 50.63973 | 9.85710 | 33370 ft | 409 kts | 290° |
| 2026-05-01 15:04 | 50.64908 | 9.81479 | 33098 ft | 408 kts | 290° |
| 2026-05-01 15:04 | 50.65836 | 9.77269 | 32836 ft | 406 kts | 290° |
| 2026-05-01 15:04 | 50.66761 | 9.73069 | 32563 ft | 404 kts | 289° |
| 2026-05-01 15:05 | 50.67677 | 9.68897 | 32297 ft | 402 kts | 289° |
| 2026-05-01 15:05 | 50.68283 | 9.66134 | 32130 ft | 402 kts | 289° |
| 2026-05-01 15:05 | 50.69194 | 9.61978 | 31868 ft | 401 kts | 290° |
| 2026-05-01 15:05 | 50.70103 | 9.57825 | 31623 ft | 400 kts | 289° |
| 2026-05-01 15:06 | 50.71007 | 9.53683 | 31379 ft | 399 kts | 289° |
| 2026-05-01 15:06 | 50.71910 | 9.49532 | 31119 ft | 398 kts | 289° |
| 2026-05-01 15:06 | 50.72806 | 9.45404 | 30870 ft | 397 kts | 289° |
| 2026-05-01 15:06 | 50.73700 | 9.41283 | 30628 ft | 396 kts | 289° |
| 2026-05-01 15:07 | 50.74591 | 9.37175 | 30371 ft | 395 kts | 289° |
| 2026-05-01 15:07 | 50.75479 | 9.33086 | 30085 ft | 394 kts | 289° |
| 2026-05-01 15:07 | 50.76516 | 9.29098 | 29784 ft | 391 kts | 300° |
| 2026-05-01 15:07 | 50.77902 | 9.25414 | 29528 ft | 391 kts | 303° |
| 2026-05-01 15:08 | 50.79355 | 9.21798 | 29242 ft | 389 kts | 303° |
| 2026-05-01 15:08 | 50.80820 | 9.18209 | 28960 ft | 387 kts | 303° |
| 2026-05-01 15:08 | 50.82263 | 9.14629 | 28688 ft | 386 kts | 303° |
| 2026-05-01 15:08 | 50.83687 | 9.11026 | 28418 ft | 385 kts | 302° |
| 2026-05-01 15:09 | 50.85084 | 9.07420 | 28148 ft | 384 kts | 302° |
| 2026-05-01 15:09 | 50.86461 | 9.03807 | 27879 ft | 383 kts | 302° |
| 2026-05-01 15:09 | 50.87832 | 9.00173 | 27615 ft | 384 kts | 302° |
| 2026-05-01 15:09 | 50.89196 | 8.96542 | 27353 ft | 384 kts | 302° |
| 2026-05-01 15:10 | 50.90562 | 8.92914 | 27092 ft | 383 kts | 302° |
| 2026-05-01 15:10 | 50.93294 | 8.85696 | 26578 ft | 381 kts | 302° |
| 2026-05-01 15:10 | 50.94655 | 8.82101 | 26319 ft | 380 kts | 302° |
| 2026-05-01 15:11 | 50.95916 | 8.78424 | 26066 ft | 379 kts | 295° |
| 2026-05-01 15:11 | 50.98070 | 8.70815 | 25587 ft | 375 kts | 294° |
| 2026-05-01 15:11 | 50.99109 | 8.67025 | 25338 ft | 374 kts | 294° |
| 2026-05-01 15:12 | 51.00147 | 8.63225 | 25100 ft | 375 kts | 294° |
| 2026-05-01 15:12 | 51.02215 | 8.55672 | 24400 ft | 372 kts | 294° |
| 2026-05-01 15:12 | 51.03244 | 8.51934 | 24288 ft | 368 kts | 294° |
| 2026-05-01 15:13 | 51.06318 | 8.40756 | 24311 ft | 370 kts | 294° |
| 2026-05-01 15:14 | 51.08374 | 8.33245 | 23505 ft | 376 kts | 294° |
| 2026-05-01 15:14 | 51.09426 | 8.29406 | 22375 ft | 381 kts | 293° |
| 2026-05-01 15:14 | 51.11537 | 8.21662 | 20477 ft | 380 kts | 292° |
| 2026-05-01 15:15 | 51.13611 | 8.14023 | 18942 ft | 371 kts | 292° |
| 2026-05-01 15:15 | 51.15609 | 8.06632 | 17348 ft | 362 kts | 291° |
| 2026-05-01 15:16 | 51.17573 | 7.99344 | 15850 ft | 352 kts | 292° |
| 2026-05-01 15:16 | 51.19483 | 7.92240 | 14577 ft | 340 kts | 292° |
| 2026-05-01 15:17 | 51.21317 | 7.85407 | 13744 ft | 331 kts | 291° |
| 2026-05-01 15:18 | 51.23963 | 7.75495 | 12554 ft | 317 kts | 291° |
| 2026-05-01 15:18 | 51.24818 | 7.72277 | 12159 ft | 313 kts | 291° |
| 2026-05-01 15:19 | 51.27317 | 7.62855 | 10980 ft | 302 kts | 290° |
| 2026-05-01 15:19 | 51.28939 | 7.56736 | 10193 ft | 295 kts | 290° |
| 2026-05-01 15:19 | 51.29740 | 7.53699 | 9558 ft | 299 kts | 290° |
| 2026-05-01 15:20 | 51.31341 | 7.47622 | 8670 ft | 293 kts | 289° |
| 2026-05-01 15:20 | 51.32117 | 7.44678 | 8263 ft | 281 kts | 290° |
| 2026-05-01 15:20 | 51.32857 | 7.41877 | 8078 ft | 264 kts | 289° |
| 2026-05-01 15:21 | 51.33560 | 7.39208 | 7566 ft | 259 kts | 289° |
| 2026-05-01 15:21 | 51.34248 | 7.36574 | 7117 ft | 254 kts | 289° |
| 2026-05-01 15:21 | 51.34914 | 7.34021 | 6723 ft | 250 kts | 289° |
| 2026-05-01 15:21 | 51.35577 | 7.31479 | 6327 ft | 245 kts | 288° |
| 2026-05-01 15:22 | 51.36868 | 7.26541 | 5558 ft | 236 kts | 289° |
| 2026-05-01 15:22 | 51.37494 | 7.24142 | 5198 ft | 232 kts | 288° |
| 2026-05-01 15:22 | 51.38113 | 7.21763 | 4826 ft | 234 kts | 289° |
| 2026-05-01 15:23 | 51.38742 | 7.19325 | 4433 ft | 239 kts | 289° |
| 2026-05-01 15:23 | 51.39380 | 7.16853 | 4176 ft | 238 kts | 289° |
| 2026-05-01 15:23 | 51.40002 | 7.14455 | 4111 ft | 228 kts | 289° |
| 2026-05-01 15:23 | 51.40603 | 7.12157 | 4037 ft | 219 kts | 290° |
| 2026-05-01 15:24 | 51.41180 | 7.09930 | 3948 ft | 215 kts | 289° |
| 2026-05-01 15:24 | 51.41672 | 7.07697 | 3850 ft | 210 kts | 276° |
| 2026-05-01 15:24 | 51.41694 | 7.05405 | 3764 ft | 203 kts | 256° |
| 2026-05-01 15:24 | 51.41232 | 7.03305 | 3696 ft | 199 kts | 235° |
| 2026-05-01 15:25 | 51.40432 | 7.01527 | 3607 ft | 197 kts | 228° |
| 2026-05-01 15:25 | 51.39635 | 6.99828 | 3406 ft | 183 kts | 228° |
| 2026-05-01 15:25 | 51.38887 | 6.98238 | 3179 ft | 176 kts | 228° |
| 2026-05-01 15:25 | 51.38145 | 6.96669 | 2944 ft | 175 kts | 227° |
| 2026-05-01 15:26 | 51.37411 | 6.95117 | 2725 ft | 175 kts | 227° |
| 2026-05-01 15:26 | 51.36708 | 6.93626 | 2500 ft | 161 kts | 226° |
| 2026-05-01 15:26 | 51.36047 | 6.92230 | 2320 ft | 153 kts | 225° |
| 2026-05-01 15:26 | 51.35413 | 6.90898 | 2134 ft | 149 kts | 226° |
| 2026-05-01 15:27 | 51.34784 | 6.89569 | 1880 ft | 153 kts | 227° |
| 2026-05-01 15:27 | 51.34146 | 6.88218 | 1683 ft | 150 kts | 227° |
| 2026-05-01 15:27 | 51.33531 | 6.86908 | 1490 ft | 146 kts | 226° |
| 2026-05-01 15:28 | 51.32314 | 6.84351 | 1080 ft | 145 kts | 227° |
| 2026-05-01 15:28 | 51.31697 | 6.83057 | 918 ft | 147 kts | 227° |
| 2026-05-01 15:28 | 51.31078 | 6.81752 | 697 ft | 148 kts | 227° |
| 2026-05-01 15:29 | 51.29872 | 6.79189 | 328 ft | 140 kts | 227° |
| 2026-05-01 15:29 | 51.29294 | 6.77961 | 155 ft | 134 kts | 225° |
| 2026-05-01 15:29 | 51.28436 | 6.76243 | 124 ft | 46 kts | 232° |
| 2026-05-01 15:30 | 51.28198 | 6.76131 | 127 ft | 7 kts | 93° |
| 2026-05-01 15:31 | 51.28108 | 6.76391 | 127 ft | 6 kts | 156° |
| 2026-05-01 15:31 | 51.28069 | 6.76381 | 127 ft | 0 kts | 195° |
| 2026-05-01 15:32 | 51.28060 | 6.76377 | 125 ft | 3 kts | 197° |
| 2026-05-01 15:32 | 51.28037 | 6.76366 | 126 ft | 0 kts | 197° |